createdAt,value
2023-04-14T00:00:02.099Z,77.00
2023-04-14T00:01:02.560Z,77.00
2023-04-14T00:02:02.866Z,76.00
2023-04-14T00:03:03.206Z,75.00
2023-04-14T00:04:02.668Z,75.00
2023-04-14T00:05:02.863Z,74.00
2023-04-14T00:06:02.447Z,74.00
2023-04-14T00:07:02.335Z,76.00
2023-04-14T00:08:02.441Z,77.00
2023-04-14T00:09:02.676Z,77.00
2023-04-14T00:10:02.034Z,77.00
2023-04-14T00:11:02.336Z,75.00
2023-04-14T00:12:02.407Z,75.00
2023-04-14T00:13:02.625Z,75.00
2023-04-14T00:14:02.514Z,76.00
2023-04-14T00:15:02.322Z,77.00
2023-04-14T00:16:02.188Z,77.00
2023-04-14T00:17:03.105Z,77.00
2023-04-14T00:18:03.231Z,77.00
2023-04-14T00:19:03.421Z,77.00
2023-04-14T00:20:02.954Z,77.00
2023-04-14T00:21:03.172Z,78.00
2023-04-14T00:22:02.050Z,79.00
2023-04-14T00:23:02.342Z,79.00
2023-04-14T00:24:01.993Z,78.00
2023-04-14T00:25:02.289Z,79.00
2023-04-14T00:26:02.561Z,79.00
2023-04-14T00:27:02.682Z,78.00
2023-04-14T00:28:02.678Z,77.00
2023-04-14T00:29:02.728Z,77.00
2023-04-14T00:30:02.230Z,77.00
2023-04-14T00:31:02.406Z,77.00
2023-04-14T00:32:02.670Z,78.00
2023-04-14T00:33:02.236Z,79.00
2023-04-14T00:34:02.800Z,79.00
2023-04-14T00:35:02.688Z,79.00
2023-04-14T00:36:02.718Z,78.00
2023-04-14T00:37:02.758Z,78.00
2023-04-14T00:38:02.407Z,78.00
2023-04-14T00:39:03.046Z,77.00
2023-04-14T00:40:02.783Z,77.00
2023-04-14T00:41:02.711Z,77.00
2023-04-14T00:42:02.954Z,77.00
2023-04-14T00:43:02.512Z,76.00
2023-04-14T00:44:03.114Z,77.00
2023-04-14T00:45:03.029Z,78.00
2023-04-14T00:46:03.120Z,78.00
2023-04-14T00:47:02.268Z,77.00
2023-04-14T00:48:02.312Z,77.00
2023-04-14T00:49:02.713Z,77.00
2023-04-14T00:50:02.372Z,76.00
2023-04-14T00:51:02.279Z,76.00
2023-04-14T00:52:02.369Z,75.00
2023-04-14T00:53:02.758Z,75.00
2023-04-14T00:54:02.943Z,76.00
2023-04-14T00:55:02.627Z,75.00
2023-04-14T00:56:02.842Z,75.00
2023-04-14T00:57:02.303Z,75.00
2023-04-14T00:58:02.532Z,74.00
2023-04-14T00:59:02.751Z,75.00
2023-04-14T01:00:02.940Z,75.00
2023-04-14T01:01:02.475Z,75.00
2023-04-14T01:02:01.981Z,76.00
2023-04-14T01:03:02.158Z,76.00
2023-04-14T01:04:02.482Z,76.00
2023-04-14T01:05:02.767Z,75.00
2023-04-14T01:06:02.426Z,75.00
2023-04-14T01:07:02.614Z,76.00
2023-04-14T01:08:03.026Z,74.00
2023-04-14T01:09:02.691Z,75.00
2023-04-14T01:10:02.953Z,75.00
2023-04-14T01:11:02.785Z,76.00
2023-04-14T01:12:02.402Z,76.00
2023-04-14T01:13:02.336Z,76.00
2023-04-14T01:14:01.923Z,77.00
2023-04-14T01:15:02.022Z,76.00
2023-04-14T01:16:02.371Z,77.00
2023-04-14T01:17:02.441Z,77.00
2023-04-14T01:18:02.165Z,77.00
2023-04-14T01:19:02.683Z,77.00
2023-04-14T01:20:02.172Z,77.00
2023-04-14T01:21:02.211Z,78.00
2023-04-14T01:22:02.580Z,78.00
2023-04-14T01:23:02.931Z,78.00
2023-04-14T01:24:03.130Z,78.00
2023-04-14T01:25:02.510Z,78.00
2023-04-14T01:26:02.724Z,78.00
2023-04-14T01:27:01.992Z,79.00
2023-04-14T01:28:02.270Z,79.00
2023-04-14T01:29:02.661Z,79.00
2023-04-14T01:30:02.164Z,78.00
2023-04-14T01:31:02.421Z,77.00
2023-04-14T01:32:01.946Z,77.00
2023-04-14T01:33:01.749Z,77.00
2023-04-14T01:34:01.965Z,76.00
2023-04-14T01:35:02.125Z,76.00
2023-04-14T01:36:01.703Z,76.00
2023-04-14T01:37:02.021Z,75.00
2023-04-14T01:38:02.565Z,75.00
2023-04-14T01:39:02.532Z,75.00
2023-04-14T01:40:02.539Z,74.00
2023-04-14T01:41:02.484Z,74.00
2023-04-14T01:42:02.475Z,74.00
2023-04-14T01:43:02.725Z,75.00
2023-04-14T01:44:02.360Z,77.00
2023-04-14T01:45:02.617Z,78.00
2023-04-14T01:46:03.217Z,77.00
2023-04-14T01:47:02.597Z,77.00
2023-04-14T01:48:02.560Z,76.00
2023-04-14T01:49:03.140Z,76.00
2023-04-14T01:50:02.687Z,75.00
2023-04-14T01:51:02.787Z,76.00
2023-04-14T01:52:02.418Z,76.00
2023-04-14T01:53:02.033Z,76.00
2023-04-14T01:54:02.258Z,76.00
2023-04-14T01:55:02.568Z,76.00
2023-04-14T01:56:02.019Z,77.00
2023-04-14T01:57:02.388Z,77.00
2023-04-14T01:58:02.403Z,77.00
2023-04-14T01:59:02.750Z,78.00
2023-04-14T02:00:02.147Z,78.00
2023-04-14T02:01:02.322Z,78.00
2023-04-14T02:02:02.593Z,78.00
2023-04-14T02:03:03.033Z,77.00
2023-04-14T02:04:02.542Z,77.00
2023-04-14T02:05:02.692Z,78.00
2023-04-14T02:06:02.538Z,78.00
2023-04-14T02:07:02.972Z,78.00
2023-04-14T02:08:02.661Z,78.00
2023-04-14T02:09:02.946Z,77.00
2023-04-14T02:10:02.784Z,76.00
2023-04-14T02:11:02.999Z,77.00
2023-04-14T02:12:02.235Z,77.00
2023-04-14T02:13:02.503Z,78.00
2023-04-14T02:14:02.023Z,77.00
2023-04-14T02:15:02.455Z,77.00
2023-04-14T02:16:02.610Z,77.00
2023-04-14T02:17:02.748Z,77.00
2023-04-14T02:18:03.028Z,77.00
2023-04-14T02:19:03.155Z,76.00
2023-04-14T02:20:02.940Z,77.00
2023-04-14T02:21:02.981Z,78.00
2023-04-14T02:22:03.047Z,78.00
2023-04-14T02:23:03.227Z,79.00
2023-04-14T02:24:02.855Z,79.00
2023-04-14T02:25:03.049Z,79.00
2023-04-14T02:26:03.269Z,78.00
2023-04-14T02:27:02.561Z,77.00
2023-04-14T02:28:02.652Z,77.00
2023-04-14T02:29:02.484Z,76.00
2023-04-14T02:30:02.881Z,76.00
2023-04-14T02:31:02.727Z,75.00
2023-04-14T02:32:02.736Z,76.00
2023-04-14T02:33:03.165Z,77.00
2023-04-14T02:34:02.782Z,78.00
2023-04-14T02:35:02.984Z,78.00
2023-04-14T02:36:03.339Z,76.00
2023-04-14T02:37:02.428Z,76.00
2023-04-14T02:38:02.680Z,76.00
2023-04-14T02:39:02.485Z,76.00
2023-04-14T02:40:02.562Z,79.00
2023-04-14T02:41:02.269Z,79.00
2023-04-14T02:42:02.917Z,78.00
2023-04-14T02:43:02.924Z,79.00
2023-04-14T02:44:02.673Z,78.00
2023-04-14T02:45:02.233Z,79.00
2023-04-14T02:46:02.578Z,79.00
2023-04-14T02:47:03.114Z,80.00
2023-04-14T02:48:02.866Z,80.00
2023-04-14T02:49:03.229Z,80.00
2023-04-14T02:50:03.266Z,80.00
2023-04-14T02:51:02.654Z,81.00
2023-04-14T02:52:02.589Z,81.00
2023-04-14T02:53:02.639Z,81.00
2023-04-14T02:54:02.337Z,80.00
2023-04-14T02:55:02.340Z,81.00
2023-04-14T02:56:02.724Z,80.00
2023-04-14T02:57:02.720Z,79.00
2023-04-14T02:58:02.881Z,80.00
2023-04-14T02:59:03.301Z,79.00
2023-04-14T03:00:02.691Z,78.00
2023-04-14T03:01:03.034Z,78.00
2023-04-14T03:02:02.521Z,78.00
2023-04-14T03:03:02.261Z,79.00
2023-04-14T03:04:02.522Z,79.00
2023-04-14T03:05:02.487Z,80.00
2023-04-14T03:06:02.444Z,80.00
2023-04-14T03:07:02.627Z,80.00
2023-04-14T03:08:02.259Z,80.00
2023-04-14T03:09:02.941Z,80.00
2023-04-14T03:10:02.342Z,81.00
2023-04-14T03:11:02.473Z,81.00
2023-04-14T03:12:02.430Z,80.00
2023-04-14T03:13:02.849Z,79.00
2023-04-14T03:14:02.858Z,80.00
2023-04-14T03:15:02.345Z,80.00
2023-04-14T03:16:02.877Z,80.00
2023-04-14T03:17:01.871Z,80.00
2023-04-14T03:18:01.533Z,80.00
2023-04-14T03:19:01.915Z,81.00
2023-04-14T03:20:01.665Z,81.00
2023-04-14T03:21:01.344Z,81.00
2023-04-14T03:22:02.322Z,81.00
2023-04-14T03:23:02.426Z,82.00
2023-04-14T03:24:01.939Z,83.00
2023-04-14T03:25:01.996Z,83.00
2023-04-14T03:26:01.765Z,84.00
2023-04-14T03:27:02.184Z,83.00
2023-04-14T03:28:02.399Z,83.00
2023-04-14T03:29:02.818Z,83.00
2023-04-14T03:30:02.288Z,83.00
2023-04-14T03:31:02.613Z,82.00
2023-04-14T03:32:02.004Z,82.00
2023-04-14T03:33:01.630Z,81.00
2023-04-14T03:34:01.998Z,81.00
2023-04-14T03:35:01.502Z,81.00
2023-04-14T03:36:01.810Z,81.00
2023-04-14T03:37:01.928Z,81.00
2023-04-14T03:38:01.756Z,81.00
2023-04-14T03:39:02.444Z,81.00
2023-04-14T03:40:02.091Z,82.00
2023-04-14T03:41:01.503Z,82.00
2023-04-14T03:42:02.099Z,82.00
2023-04-14T03:43:02.162Z,82.00
2023-04-14T03:44:02.513Z,82.00
2023-04-14T03:45:02.264Z,81.00
2023-04-14T03:46:02.593Z,80.00
2023-04-14T03:47:01.978Z,80.00
2023-04-14T03:48:01.757Z,80.00
2023-04-14T03:49:02.360Z,80.00
2023-04-14T03:50:01.918Z,80.00
2023-04-14T03:51:02.211Z,80.00
2023-04-14T03:52:01.836Z,80.00
2023-04-14T03:53:01.908Z,80.00
2023-04-14T03:54:02.221Z,80.00
2023-04-14T03:55:02.037Z,80.00
2023-04-14T03:56:02.368Z,80.00
2023-04-14T03:57:02.178Z,80.00
2023-04-14T03:58:02.297Z,81.00
2023-04-14T03:59:02.811Z,80.00
2023-04-14T04:00:02.687Z,81.00
2023-04-14T04:01:02.500Z,81.00
2023-04-14T04:02:03.503Z,81.00
2023-04-14T04:03:03.467Z,80.00
2023-04-14T04:04:03.223Z,80.00
2023-04-14T04:05:03.156Z,80.00
2023-04-14T04:06:03.342Z,80.00
2023-04-14T04:07:02.460Z,80.00
2023-04-14T04:08:03.029Z,80.00
2023-04-14T04:09:03.060Z,80.00
2023-04-14T04:10:02.795Z,80.00
2023-04-14T04:11:02.384Z,80.00
2023-04-14T04:12:02.805Z,80.00
2023-04-14T04:13:03.202Z,80.00
2023-04-14T04:14:03.278Z,80.00
2023-04-14T04:15:02.884Z,81.00
2023-04-14T04:16:02.968Z,81.00
2023-04-14T04:17:03.325Z,81.00
2023-04-14T04:18:03.726Z,81.00
2023-04-14T04:19:03.446Z,81.00
2023-04-14T04:20:04.396Z,81.00
2023-04-14T04:21:03.170Z,81.00
2023-04-14T04:22:02.512Z,81.00
2023-04-14T04:23:02.861Z,81.00
2023-04-14T04:24:02.537Z,82.00
2023-04-14T04:25:02.991Z,81.00
2023-04-14T04:26:02.900Z,81.00
2023-04-14T04:27:02.588Z,81.00
2023-04-14T04:28:03.032Z,80.00
2023-04-14T04:29:03.195Z,79.00
2023-04-14T04:30:02.500Z,80.00
2023-04-14T04:31:02.858Z,81.00
2023-04-14T04:32:03.341Z,81.00
2023-04-14T04:33:03.789Z,81.00
2023-04-14T04:34:03.192Z,82.00
2023-04-14T04:35:03.461Z,82.00
2023-04-14T04:36:03.098Z,82.00
2023-04-14T04:37:02.496Z,82.00
2023-04-14T04:38:02.459Z,83.00
2023-04-14T04:39:02.913Z,83.00
2023-04-14T04:40:02.552Z,82.00
2023-04-14T04:41:02.904Z,82.00
2023-04-14T04:42:02.772Z,83.00
2023-04-14T04:43:03.121Z,83.00
2023-04-14T04:44:02.619Z,84.00
2023-04-14T04:45:02.605Z,83.00
2023-04-14T04:46:03.076Z,84.00
2023-04-14T04:47:03.210Z,85.00
2023-04-14T04:48:03.077Z,85.00
2023-04-14T04:49:03.427Z,85.00
2023-04-14T04:50:03.189Z,86.00
2023-04-14T04:51:03.660Z,85.00
2023-04-14T04:52:03.107Z,84.00
2023-04-14T04:53:02.526Z,84.00
2023-04-14T04:54:02.558Z,83.00
2023-04-14T04:55:02.880Z,83.00
2023-04-14T04:56:02.608Z,83.00
2023-04-14T04:57:02.919Z,82.00
2023-04-14T04:58:03.241Z,83.00
2023-04-14T04:59:02.937Z,83.00
2023-04-14T05:00:03.286Z,82.00
2023-04-14T05:01:03.317Z,81.00
2023-04-14T05:02:02.640Z,81.00
2023-04-14T05:03:02.448Z,81.00
2023-04-14T05:04:02.835Z,81.00
2023-04-14T05:05:02.813Z,82.00
2023-04-14T05:06:02.188Z,81.00
2023-04-14T05:07:02.513Z,82.00
2023-04-14T05:08:02.890Z,82.00
2023-04-14T05:09:02.558Z,81.00
2023-04-14T05:10:02.358Z,81.00
2023-04-14T05:11:02.759Z,82.00
2023-04-14T05:12:02.319Z,82.00
2023-04-14T05:13:01.993Z,82.00
2023-04-14T05:14:02.318Z,81.00
2023-04-14T05:15:01.869Z,82.00
2023-04-14T05:16:02.482Z,82.00
2023-04-14T05:17:02.656Z,82.00
2023-04-14T05:18:02.499Z,82.00
2023-04-14T05:19:02.549Z,82.00
2023-04-14T05:20:02.739Z,82.00
2023-04-14T05:21:02.333Z,81.00
2023-04-14T05:22:02.372Z,81.00
2023-04-14T05:23:02.060Z,80.00
2023-04-14T05:24:02.568Z,81.00
2023-04-14T05:25:01.993Z,81.00
2023-04-14T05:26:26.464Z,81.00
2023-04-14T05:27:13.817Z,81.00
2023-04-14T05:28:02.396Z,82.00
2023-04-14T05:29:02.564Z,81.00
2023-04-14T05:30:02.333Z,81.00
2023-04-14T05:31:02.623Z,81.00
2023-04-14T05:32:02.277Z,81.00
2023-04-14T05:33:01.858Z,82.00
2023-04-14T05:34:02.798Z,83.00
2023-04-14T05:35:01.798Z,83.00
2023-04-14T05:36:01.849Z,82.00
2023-04-14T05:37:02.279Z,83.00
2023-04-14T05:38:01.843Z,83.00
2023-04-14T05:39:01.820Z,84.00
2023-04-14T05:40:01.854Z,85.00
2023-04-14T05:41:01.948Z,84.00
2023-04-14T05:42:01.803Z,83.00
2023-04-14T05:43:02.377Z,83.00
2023-04-14T05:44:02.048Z,84.00
2023-04-14T05:45:02.093Z,84.00
2023-04-14T05:46:01.892Z,84.00
2023-04-14T05:47:02.779Z,83.00
2023-04-14T05:48:02.788Z,83.00
2023-04-14T05:49:02.894Z,83.00
2023-04-14T05:50:02.492Z,83.00
2023-04-14T05:51:02.450Z,84.00
2023-04-14T05:52:02.324Z,84.00
2023-04-14T05:53:01.773Z,84.00
2023-04-14T05:54:02.531Z,84.00
2023-04-14T05:55:01.838Z,84.00
2023-04-14T05:56:01.765Z,84.00
2023-04-14T05:57:01.947Z,84.00
2023-04-14T05:58:01.318Z,85.00
2023-04-14T05:59:01.892Z,85.00
2023-04-14T06:00:01.593Z,85.00
2023-04-14T06:01:01.461Z,85.00
2023-04-14T06:02:02.127Z,85.00
2023-04-14T06:03:02.122Z,85.00
2023-04-14T06:04:02.725Z,85.00
2023-04-14T06:05:02.252Z,85.00
2023-04-14T06:06:02.146Z,85.00
2023-04-14T06:07:02.577Z,86.00
2023-04-14T06:08:02.046Z,85.00
2023-04-14T06:09:02.582Z,85.00
2023-04-14T06:10:02.293Z,86.00
2023-04-14T06:11:02.446Z,86.00
2023-04-14T06:12:02.693Z,86.00
2023-04-14T06:13:02.149Z,86.00
2023-04-14T06:14:02.636Z,86.00
2023-04-14T06:15:02.254Z,86.00
2023-04-14T06:16:02.136Z,86.00
2023-04-14T06:17:02.048Z,86.00
2023-04-14T06:18:01.888Z,85.00
2023-04-14T06:19:02.526Z,85.00
2023-04-14T06:20:02.258Z,85.00
2023-04-14T06:21:01.796Z,85.00
2023-04-14T06:22:02.680Z,85.00
2023-04-14T06:23:02.170Z,84.00
2023-04-14T06:24:01.998Z,84.00
2023-04-14T06:25:02.473Z,84.00
2023-04-14T06:26:02.294Z,84.00
2023-04-14T06:27:02.151Z,85.00
2023-04-14T06:28:02.716Z,85.00
2023-04-14T06:29:02.511Z,85.00
2023-04-14T06:30:02.277Z,85.00
2023-04-14T06:31:02.481Z,85.00
2023-04-14T06:32:02.337Z,84.00
2023-04-14T06:33:02.244Z,83.00
2023-04-14T06:34:02.815Z,82.00
2023-04-14T06:35:02.486Z,83.00
2023-04-14T06:36:02.370Z,84.00
2023-04-14T06:37:01.992Z,83.00
2023-04-14T06:38:02.001Z,83.00
2023-04-14T06:39:02.273Z,83.00
2023-04-14T06:40:02.147Z,82.00
2023-04-14T06:41:02.103Z,81.00
2023-04-14T06:42:02.096Z,81.00
2023-04-14T06:43:02.254Z,81.00
2023-04-14T06:44:02.514Z,81.00
2023-04-14T06:45:02.337Z,80.00
2023-04-14T06:46:02.250Z,80.00
2023-04-14T06:47:01.862Z,79.00
2023-04-14T06:48:02.225Z,79.00
2023-04-14T06:49:02.076Z,79.00
2023-04-14T06:50:01.986Z,80.00
2023-04-14T06:51:01.830Z,81.00
2023-04-14T06:52:02.165Z,81.00
2023-04-14T06:53:02.115Z,80.00
2023-04-14T06:54:02.844Z,78.00
2023-04-14T06:55:01.995Z,78.00
2023-04-14T06:56:02.657Z,79.00
2023-04-14T06:57:02.293Z,77.00
2023-04-14T06:58:02.196Z,77.00
2023-04-14T06:59:02.680Z,76.00
2023-04-14T07:00:02.423Z,77.00
2023-04-14T07:01:02.330Z,77.00
2023-04-14T07:02:03.295Z,77.00
2023-04-14T07:03:03.104Z,76.00
2023-04-14T07:04:06.048Z,76.00
2023-04-14T07:05:03.141Z,75.00
2023-04-14T07:06:02.909Z,75.00
2023-04-14T07:07:03.585Z,75.00
2023-04-14T07:08:02.970Z,74.00
2023-04-14T07:09:03.263Z,73.00
2023-04-14T07:10:03.441Z,72.00
2023-04-14T07:11:02.973Z,71.00
2023-04-14T07:12:03.079Z,70.00
2023-04-14T07:13:03.083Z,70.00
2023-04-14T07:14:03.871Z,71.00
2023-04-14T07:15:03.594Z,72.00
2023-04-14T07:16:03.120Z,72.00
2023-04-14T07:17:02.631Z,72.00
2023-04-14T07:18:03.082Z,71.00
2023-04-14T07:19:02.586Z,70.00
2023-04-14T07:20:02.437Z,71.00
2023-04-14T07:21:02.417Z,70.00
2023-04-14T07:22:02.993Z,68.00
2023-04-14T07:23:03.130Z,69.00
2023-04-14T07:24:03.143Z,69.00
2023-04-14T07:25:03.150Z,67.00
2023-04-14T07:26:02.835Z,68.00
2023-04-14T07:27:03.230Z,66.00
2023-04-14T07:28:04.237Z,65.00
2023-04-14T07:29:03.102Z,66.00
2023-04-14T07:30:03.232Z,66.00
2023-04-14T07:31:03.028Z,67.00
2023-04-14T07:32:02.669Z,67.00
2023-04-14T07:33:02.737Z,66.00
2023-04-14T07:34:03.150Z,64.00
2023-04-14T07:35:02.938Z,65.00
2023-04-14T07:36:04.028Z,65.00
2023-04-14T07:37:02.842Z,65.00
2023-04-14T07:38:03.013Z,65.00
2023-04-14T07:39:02.670Z,66.00
2023-04-14T07:40:02.710Z,63.00
2023-04-14T07:41:03.126Z,63.00
2023-04-14T07:42:03.333Z,64.00
2023-04-14T07:43:03.326Z,64.00
2023-04-14T07:44:03.524Z,63.00
2023-04-14T07:45:03.222Z,62.00
2023-04-14T07:46:02.838Z,62.00
2023-04-14T07:47:03.184Z,62.00
2023-04-14T07:48:03.176Z,62.00
2023-04-14T07:49:03.156Z,62.00
2023-04-14T07:50:03.291Z,63.00
2023-04-14T07:51:02.953Z,63.00
2023-04-14T07:52:02.649Z,63.00
2023-04-14T07:53:02.624Z,62.00
2023-04-14T07:54:02.577Z,62.00
2023-04-14T07:55:02.672Z,64.00
2023-04-14T07:56:02.654Z,63.00
2023-04-14T07:57:02.905Z,62.00
2023-04-14T07:58:03.128Z,64.00
2023-04-14T07:59:03.176Z,64.00
2023-04-14T08:00:03.041Z,63.00
2023-04-14T08:01:02.699Z,63.00
2023-04-14T08:02:03.295Z,62.00
2023-04-14T08:03:03.389Z,60.00
2023-04-14T08:04:03.366Z,61.00
2023-04-14T08:05:03.250Z,60.00
2023-04-14T08:06:03.035Z,62.00
2023-04-14T08:07:02.419Z,62.00
2023-04-14T08:08:02.204Z,61.00
2023-04-14T08:09:01.941Z,61.00
2023-04-14T08:10:02.362Z,61.00
2023-04-14T08:11:02.073Z,61.00
2023-04-14T08:12:02.381Z,59.00
2023-04-14T08:13:03.726Z,60.00
2023-04-14T08:14:02.401Z,59.00
2023-04-14T08:15:02.475Z,58.00
2023-04-14T08:16:02.574Z,55.00
2023-04-14T08:17:02.553Z,56.00
2023-04-14T08:18:02.736Z,56.00
2023-04-14T08:19:02.722Z,56.00
2023-04-14T08:20:02.587Z,57.00
2023-04-14T08:21:02.510Z,56.00
2023-04-14T08:22:03.352Z,55.00
2023-04-14T08:23:03.257Z,57.00
2023-04-14T08:24:02.764Z,57.00
2023-04-14T08:25:02.699Z,56.00
2023-04-14T08:26:03.209Z,56.00
2023-04-14T08:27:02.537Z,56.00
2023-04-14T08:28:02.511Z,56.00
2023-04-14T08:29:02.534Z,55.00
2023-04-14T08:30:02.577Z,53.00
2023-04-14T08:31:02.031Z,52.00
2023-04-14T08:32:02.874Z,53.00
2023-04-14T08:33:02.713Z,53.00
2023-04-14T08:34:02.431Z,52.00
2023-04-14T08:35:38.110Z,54.00
2023-04-14T08:36:02.323Z,53.00
2023-04-14T08:37:02.823Z,52.00
2023-04-14T08:38:02.753Z,52.00
2023-04-14T08:39:03.008Z,54.00
2023-04-14T08:40:03.003Z,56.00
2023-04-14T08:41:02.928Z,55.00
2023-04-14T08:42:02.591Z,55.00
2023-04-14T08:43:02.530Z,53.00
2023-04-14T08:44:02.591Z,52.00
2023-04-14T08:45:02.258Z,52.00
2023-04-14T08:46:02.103Z,52.00
2023-04-14T08:47:02.713Z,50.00
2023-04-14T08:48:02.691Z,51.00
2023-04-14T08:49:02.773Z,51.00
2023-04-14T08:50:02.904Z,51.00
2023-04-14T08:51:02.469Z,51.00
2023-04-14T08:52:02.958Z,51.00
2023-04-14T08:53:02.800Z,50.00
2023-04-14T08:54:02.966Z,50.00
2023-04-14T08:55:02.492Z,50.00
2023-04-14T08:56:02.458Z,50.00
2023-04-14T08:57:03.259Z,50.00
2023-04-14T08:58:03.043Z,50.00
2023-04-14T08:59:03.006Z,48.00
2023-04-14T09:00:03.323Z,48.00
2023-04-14T09:01:03.102Z,49.00
2023-04-14T09:02:03.481Z,51.00
2023-04-14T09:03:03.139Z,50.00
2023-04-14T09:04:03.590Z,51.00
2023-04-14T09:05:03.272Z,52.00
2023-04-14T09:06:02.851Z,52.00
2023-04-14T09:07:02.756Z,52.00
2023-04-14T09:08:02.495Z,52.00
2023-04-14T09:09:02.334Z,50.00
2023-04-14T09:10:02.300Z,49.00
2023-04-14T09:11:02.167Z,48.00
2023-04-14T09:12:02.827Z,46.00
2023-04-14T09:13:02.668Z,47.00
2023-04-14T09:14:02.963Z,46.00
2023-04-14T09:15:02.439Z,46.00
2023-04-14T09:16:02.279Z,46.00
2023-04-14T09:17:03.641Z,47.00
2023-04-14T09:18:03.436Z,50.00
2023-04-14T09:19:06.448Z,48.00
2023-04-14T09:20:38.579Z,48.00
2023-04-14T09:21:29.438Z,48.00
2023-04-14T09:22:03.610Z,47.00
2023-04-14T09:23:03.234Z,46.00
2023-04-14T09:24:03.399Z,44.00
2023-04-14T09:25:03.107Z,46.00
2023-04-14T09:26:03.580Z,45.00
2023-04-14T09:27:02.441Z,45.00
2023-04-14T09:28:02.750Z,44.00
2023-04-14T09:29:02.763Z,45.00
2023-04-14T09:30:03.002Z,44.00
2023-04-14T09:31:02.953Z,45.00
2023-04-14T09:32:03.544Z,45.00
2023-04-14T09:33:03.093Z,44.00
2023-04-14T09:34:03.173Z,44.00
2023-04-14T09:35:03.326Z,44.00
2023-04-14T09:36:03.531Z,44.00
2023-04-14T09:37:02.250Z,44.00
2023-04-14T09:38:02.250Z,46.00
2023-04-14T09:39:02.249Z,49.00
2023-04-14T09:40:02.642Z,47.00
2023-04-14T09:41:02.232Z,46.00
2023-04-14T09:42:02.467Z,46.00
2023-04-14T09:43:02.602Z,46.00
2023-04-14T09:44:03.403Z,47.00
2023-04-14T09:45:02.644Z,45.00
2023-04-14T09:46:02.836Z,45.00
2023-04-14T09:47:03.275Z,45.00
2023-04-14T09:48:02.976Z,44.00
2023-04-14T09:49:02.766Z,47.00
2023-04-14T09:50:03.059Z,42.00
2023-04-14T09:51:03.058Z,40.00
2023-04-14T09:52:02.830Z,42.00
2023-04-14T09:53:03.068Z,41.00
2023-04-14T09:54:02.970Z,41.00
2023-04-14T09:55:03.453Z,42.00
2023-04-14T09:56:03.516Z,42.00
2023-04-14T09:57:03.629Z,42.00
2023-04-14T09:58:03.328Z,40.00
2023-04-14T09:59:03.762Z,40.00
2023-04-14T10:00:03.298Z,39.00
2023-04-14T10:01:03.247Z,39.00
2023-04-14T10:02:02.375Z,39.00
2023-04-14T10:03:02.835Z,38.00
2023-04-14T10:04:02.659Z,39.00
2023-04-14T10:05:02.301Z,39.00
2023-04-14T10:06:02.560Z,39.00
2023-04-14T10:07:03.579Z,39.00
2023-04-14T10:08:03.155Z,39.00
2023-04-14T10:09:03.425Z,38.00
2023-04-14T10:10:03.234Z,39.00
2023-04-14T10:11:03.177Z,39.00
2023-04-14T10:12:02.287Z,40.00
2023-04-14T10:13:02.668Z,38.00
2023-04-14T10:14:02.661Z,38.00
2023-04-14T10:15:02.425Z,38.00
2023-04-14T10:16:02.383Z,39.00
2023-04-14T10:17:02.709Z,39.00
2023-04-14T10:18:02.668Z,39.00
2023-04-14T10:19:03.661Z,39.00
2023-04-14T10:20:02.617Z,38.00
2023-04-14T10:21:02.711Z,38.00
2023-04-14T10:22:02.386Z,37.00
2023-04-14T10:23:02.628Z,38.00
2023-04-14T10:24:02.541Z,37.00
2023-04-14T10:25:02.595Z,39.00
2023-04-14T10:26:02.473Z,38.00
2023-04-14T10:27:02.980Z,37.00
2023-04-14T10:28:03.063Z,38.00
2023-04-14T10:29:03.259Z,38.00
2023-04-14T10:30:02.901Z,37.00
2023-04-14T10:31:02.996Z,37.00
2023-04-14T10:32:03.158Z,38.00
2023-04-14T10:33:03.633Z,37.00
2023-04-14T10:34:03.125Z,38.00
2023-04-14T10:35:03.461Z,38.00
2023-04-14T10:36:03.335Z,38.00
2023-04-14T10:37:02.813Z,37.00
2023-04-14T10:38:02.802Z,38.00
2023-04-14T10:39:03.014Z,38.00
2023-04-14T10:40:02.691Z,38.00
2023-04-14T10:41:03.140Z,38.00
2023-04-14T10:42:03.338Z,37.00
2023-04-14T10:43:03.236Z,38.00
2023-04-14T10:44:03.192Z,38.00
2023-04-14T10:45:03.369Z,35.00
2023-04-14T10:46:03.379Z,37.00
2023-04-14T10:47:02.953Z,36.00
2023-04-14T10:48:03.341Z,35.00
2023-04-14T10:49:03.145Z,35.00
2023-04-14T10:50:02.907Z,36.00
2023-04-14T10:51:03.053Z,36.00
2023-04-14T10:52:03.060Z,36.00
2023-04-14T10:53:03.064Z,34.00
2023-04-14T10:54:03.061Z,34.00
2023-04-14T10:55:03.559Z,34.00
2023-04-14T10:56:03.419Z,34.00
2023-04-14T10:57:02.757Z,33.00
2023-04-14T10:58:02.882Z,33.00
2023-04-14T10:59:02.754Z,33.00
2023-04-14T11:00:02.861Z,33.00
2023-04-14T11:01:02.857Z,34.00
2023-04-14T11:02:02.862Z,35.00
2023-04-14T11:03:03.045Z,35.00
2023-04-14T11:04:02.889Z,34.00
2023-04-14T11:05:02.608Z,37.00
2023-04-14T11:06:02.933Z,35.00
2023-04-14T11:07:02.174Z,35.00
2023-04-14T11:08:03.069Z,35.00
2023-04-14T11:09:02.076Z,33.00
2023-04-14T11:10:02.296Z,33.00
2023-04-14T11:11:01.870Z,33.00
2023-04-14T11:12:02.646Z,34.00
2023-04-14T11:13:02.772Z,34.00
2023-04-14T11:14:02.753Z,33.00
2023-04-14T11:15:02.630Z,33.00
2023-04-14T11:16:02.922Z,33.00
2023-04-14T11:17:04.650Z,33.00
2023-04-14T11:18:02.410Z,33.00
2023-04-14T11:19:02.141Z,34.00
2023-04-14T11:20:02.102Z,35.00
2023-04-14T11:21:01.949Z,35.00
2023-04-14T11:22:02.658Z,33.00
2023-04-14T11:23:02.346Z,35.00
2023-04-14T11:24:02.412Z,32.00
2023-04-14T11:25:02.672Z,32.00
2023-04-14T11:26:02.539Z,32.00
2023-04-14T11:27:02.682Z,32.00
2023-04-14T11:28:02.868Z,32.00
2023-04-14T11:29:02.483Z,33.00
2023-04-14T11:30:02.604Z,34.00
2023-04-14T11:31:02.784Z,34.00
2023-04-14T11:32:02.834Z,34.00
2023-04-14T11:33:02.798Z,32.00
2023-04-14T11:34:02.785Z,33.00
2023-04-14T11:35:02.558Z,34.00
2023-04-14T11:36:03.022Z,33.00
2023-04-14T11:37:02.167Z,32.00
2023-04-14T11:38:01.999Z,33.00
2023-04-14T11:39:02.035Z,33.00
2023-04-14T11:40:01.977Z,33.00
2023-04-14T11:41:02.179Z,33.00
2023-04-14T11:42:02.840Z,32.00
2023-04-14T11:43:02.646Z,33.00
2023-04-14T11:44:02.778Z,33.00
2023-04-14T11:45:02.528Z,34.00
2023-04-14T11:46:02.993Z,34.00
2023-04-14T11:47:02.706Z,33.00
2023-04-14T11:48:02.739Z,33.00
2023-04-14T11:49:02.900Z,33.00
2023-04-14T11:50:02.704Z,33.00
2023-04-14T11:51:02.643Z,32.00
2023-04-14T11:52:02.427Z,33.00
2023-04-14T11:53:02.468Z,33.00
2023-04-14T11:54:02.354Z,31.00
2023-04-14T11:55:01.859Z,33.00
2023-04-14T11:56:01.875Z,33.00
2023-04-14T11:57:02.979Z,33.00
2023-04-14T11:58:02.551Z,32.00
2023-04-14T11:59:02.735Z,32.00
2023-04-14T12:00:03.234Z,33.00
2023-04-14T12:01:02.998Z,31.00
2023-04-14T12:02:02.759Z,33.00
2023-04-14T12:03:02.719Z,32.00
2023-04-14T12:04:02.778Z,32.00
2023-04-14T12:05:02.927Z,33.00
2023-04-14T12:06:02.784Z,32.00
2023-04-14T12:07:03.130Z,32.00
2023-04-14T12:08:02.722Z,32.00
2023-04-14T12:09:02.942Z,34.00
2023-04-14T12:10:03.068Z,33.00
2023-04-14T12:11:02.765Z,31.00
2023-04-14T12:12:03.304Z,32.00
2023-04-14T12:13:03.011Z,33.00
2023-04-14T12:14:03.050Z,31.00
2023-04-14T12:15:02.782Z,30.00
2023-04-14T12:16:03.363Z,29.00
2023-04-14T12:17:03.025Z,30.00
2023-04-14T12:18:02.916Z,28.00
2023-04-14T12:19:04.073Z,28.00
2023-04-14T12:20:02.966Z,28.00
2023-04-14T12:21:03.336Z,29.00
2023-04-14T12:22:02.033Z,30.00
2023-04-14T12:23:02.725Z,30.00
2023-04-14T12:24:02.457Z,30.00
2023-04-14T12:25:02.200Z,29.00
2023-04-14T12:26:02.334Z,29.00
2023-04-14T12:27:02.221Z,29.00
2023-04-14T12:28:02.806Z,28.00
2023-04-14T12:29:02.764Z,26.00
2023-04-14T12:30:02.551Z,28.00
2023-04-14T12:31:02.415Z,27.00
2023-04-14T12:32:02.695Z,27.00
2023-04-14T12:33:02.600Z,28.00
2023-04-14T12:34:02.633Z,28.00
2023-04-14T12:35:02.682Z,27.00
2023-04-14T12:36:02.571Z,26.00
2023-04-14T12:37:03.140Z,27.00
2023-04-14T12:38:02.318Z,27.00
2023-04-14T12:39:03.090Z,26.00
2023-04-14T12:40:02.202Z,27.00
2023-04-14T12:41:02.645Z,27.00
2023-04-14T12:42:02.203Z,25.00
2023-04-14T12:43:02.642Z,27.00
2023-04-14T12:44:02.378Z,27.00
2023-04-14T12:45:02.633Z,28.00
2023-04-14T12:46:02.519Z,25.00
2023-04-14T12:47:03.046Z,26.00
2023-04-14T12:48:02.409Z,26.00
2023-04-14T12:49:03.065Z,25.00
2023-04-14T12:50:02.847Z,25.00
2023-04-14T12:51:02.593Z,25.00
2023-04-14T12:52:02.588Z,24.00